This is the latest recevied weather packets stored in our database for station/object WC4PEM-8. If no packets are shown the sender has not sent any weather packets the latest 10 day(s).
| Time | Temp. | Humidity | Pressure | Rain* | Wind** | Luminosity | Snow |
|---|---|---|---|---|---|---|---|
| 1777755965 | 20.56° C | 95% | 1010.8 hPa | 0 mm | - | - | - |
| 1777755665 | 20.56° C | 95% | 1010.9 hPa | 0 mm | - | - | - |
| 1777755365 | 20.56° C | 95% | 1010.7 hPa | 0 mm | - | - | - |
| 1777755065 | 20° C | 95% | 1010.9 hPa | 0 mm | - | - | - |
| 1777754765 | 20° C | 95% | 1010.9 hPa | 0 mm | - | - | - |
| 1777754509 | 20° C | 94% | 1010.6 hPa | 0 mm | - | - | - |
| 1777754465 | 20° C | 95% | 1010.7 hPa | 0 mm | - | - | - |
| 1777754165 | 20° C | 95% | 1010.5 hPa | 0 mm | - | - | - |
| 1777753865 | 20° C | 95% | 1010.6 hPa | 0 mm | - | - | - |
| 1777753565 | 20° C | 94% | 1010.6 hPa | 0 mm | - | - | - |
| 1777753344 | 20° C | 94% | 1010.7 hPa | 0 mm | - | - | - |
| 1777753265 | 20° C | 94% | 1010.4 hPa | 0 mm | - | - | - |
| 1777752965 | 20° C | 94% | 1010.7 hPa | 0 mm | - | - | - |
| 1777752665 | 20° C | 93% | 1010.8 hPa | 0 mm | - | - | - |
| 1777752365 | 20° C | 93% | 1010.8 hPa | 0 mm | - | - | - |
| 1777752065 | 20° C | 92% | 1011.1 hPa | 0 mm | - | - | - |
| 1777751765 | 20.56° C | 92% | 1011 hPa | 0 mm | - | - | - |
| 1777751470 | 20.56° C | - | - | 0 mm | - | - | - |
| 1777751465 | 20.56° C | 91% | 1011.8 hPa | 0 mm | - | - | - |
| 1777751165 | 21.11° C | 88% | 1011.9 hPa | 0 mm | - | - | - |
| 1777751051 | 22.22° C | 84% | 1012.6 hPa | 0 mm | - | - | - |
| 1777750865 | 22.22° C | 84% | 1012.6 hPa | 0 mm | - | - | - |
| 1777750565 | 24.44° C | 77% | 1013.2 hPa | 0 mm | - | - | - |
| 1777750429 | 27.22° C | 79% | 1010.8 hPa | 0 mm | - | - | - |
| 1777750265 | 26.67° C | 72% | 1012.5 hPa | 0 mm | - | - | - |
* Rain latest hour (hover to see other rain measurements)
** Current wind speed in m/s (hover to see current wind gust speed)